Time;durP1;ratioP1;P1;durP2;ratioP2;P2;SDS_P1;SDS_P2;PMS_P1;PMS_P2;Temp;Humidity;BMP_temperature;BMP_pressure;BME280_temperature;BME280_humidity;BME280_pressure;Samples;Min_cycle;Max_cycle;Signal;HPM_P1;HPM_P2
2022/07/13 00:01:01;;;;;;;1.38;0.50;;;23.90;63.20;;;;;;5085897;27;20093;-19
2022/07/13 00:03:26;;;;;;;0.60;0.40;;;23.90;63.30;;;;;;5084473;27;20548;-20
2022/07/13 00:05:52;;;;;;;1.50;0.70;;;23.90;63.20;;;;;;5087146;27;20055;-19
2022/07/13 00:08:17;;;;;;;0.95;0.35;;;23.90;63.30;;;;;;5085394;27;20035;-19
2022/07/13 00:10:44;;;;;;;0.65;0.60;;;23.90;63.20;;;;;;5086212;27;20056;-19
2022/07/13 00:13:09;;;;;;;1.13;0.50;;;23.90;63.30;;;;;;5086601;27;20048;-19
2022/07/13 00:15:35;;;;;;;1.00;0.70;;;23.90;63.30;;;;;;5086202;27;20048;-19
2022/07/13 00:18:00;;;;;;;0.50;0.50;;;23.90;63.20;;;;;;5084429;27;20061;-19
2022/07/13 00:20:27;;;;;;;0.65;0.38;;;23.90;63.00;;;;;;5085424;27;20048;-19
2022/07/13 00:22:53;;;;;;;1.17;0.52;;;23.80;63.20;;;;;;5086566;27;20468;-20
2022/07/13 00:25:19;;;;;;;0.50;0.50;;;23.80;63.30;;;;;;5085736;27;20102;-19
2022/07/13 00:27:45;;;;;;;1.40;0.40;;;23.80;63.50;;;;;;5088727;27;20506;-19
2022/07/13 00:30:10;;;;;;;2.33;0.82;;;23.80;63.40;;;;;;5084515;27;20050;-20
2022/07/13 00:32:36;;;;;;;1.00;0.90;;;23.70;63.30;;;;;;5086635;27;20066;-20
2022/07/13 00:35:02;;;;;;;0.73;0.57;;;23.70;63.40;;;;;;5084516;27;20072;-19
2022/07/13 00:37:28;;;;;;;1.27;0.60;;;23.70;63.60;;;;;;5085235;27;20125;-19
2022/07/13 00:39:53;;;;;;;0.88;0.70;;;23.70;63.70;;;;;;5088675;27;20526;-19
2022/07/13 00:42:19;;;;;;;1.17;0.75;;;23.70;63.80;;;;;;5085136;27;20043;-20
2022/07/13 00:44:44;;;;;;;0.70;0.70;;;23.60;63.70;;;;;;5084921;27;20032;-20
2022/07/13 00:47:10;;;;;;;3.25;0.80;;;23.60;63.80;;;;;;5083448;27;20523;-19
2022/07/13 00:49:36;;;;;;;0.82;0.82;;;23.60;64.00;;;;;;5084346;27;20058;-19
2022/07/13 00:52:02;;;;;;;1.85;0.60;;;23.60;63.80;;;;;;5086052;28;20045;-19
2022/07/13 00:54:29;;;;;;;0.75;0.73;;;23.60;64.00;;;;;;5083924;27;20051;-19
2022/07/13 00:56:55;;;;;;;2.08;0.73;;;23.60;64.10;;;;;;5085376;28;20055;-19
2022/07/13 00:59:21;;;;;;;2.17;0.70;;;23.50;64.10;;;;;;5082391;27;20081;-20
2022/07/13 01:01:47;;;;;;;1.70;0.68;;;23.50;64.10;;;;;;5084302;28;20052;-19
2022/07/13 01:04:12;;;;;;;0.85;0.70;;;23.50;64.10;;;;;;5085126;27;20032;-19
2022/07/13 01:06:38;;;;;;;1.48;0.80;;;23.50;65.00;;;;;;5087008;27;20040;-20
2022/07/13 01:09:04;;;;;;;0.98;0.85;;;23.50;64.40;;;;;;5083972;28;20047;-19
2022/07/13 01:11:31;;;;;;;1.55;0.73;;;23.50;64.40;;;;;;5083175;27;20044;-19
2022/07/13 01:13:57;;;;;;;0.98;0.70;;;23.40;64.40;;;;;;5085637;27;20522;-19
2022/07/13 01:16:22;;;;;;;0.60;0.60;;;23.40;64.60;;;;;;5066130;28;20029;-19
2022/07/13 01:18:48;;;;;;;0.80;0.60;;;23.40;64.60;;;;;;5085723;27;20040;-20
2022/07/13 01:21:14;;;;;;;2.33;0.50;;;23.30;64.70;;;;;;5083413;28;22439;-19
2022/07/13 01:23:39;;;;;;;1.48;0.70;;;23.30;64.80;;;;;;5068742;28;20035;-20
2022/07/13 01:26:07;;;;;;;1.08;0.93;;;23.30;64.80;;;;;;5082202;28;20038;-22
2022/07/13 01:28:32;;;;;;;0.95;0.50;;;23.30;65.00;;;;;;5067604;28;20047;-19
2022/07/13 01:30:58;;;;;;;0.68;0.68;;;23.30;64.90;;;;;;5083408;27;20045;-26
2022/07/13 01:33:24;;;;;;;0.80;0.50;;;23.30;64.90;;;;;;5083899;28;20270;-28
2022/07/13 01:35:49;;;;;;;0.88;0.70;;;23.30;64.90;;;;;;5085182;27;20456;-19
2022/07/13 01:38:15;;;;;;;0.60;0.50;;;23.20;65.00;;;;;;5083144;27;20051;-19
2022/07/13 01:40:43;;;;;;;1.02;0.80;;;23.20;65.00;;;;;;5083246;28;20036;-20
2022/07/13 01:43:09;;;;;;;0.57;0.57;;;23.20;65.00;;;;;;5084323;27;20112;-20
2022/07/13 01:45:35;;;;;;;0.90;0.50;;;23.20;65.00;;;;;;5085477;27;20565;-19
2022/07/13 01:48:00;;;;;;;1.30;0.60;;;23.20;65.00;;;;;;5083590;27;20048;-20
2022/07/13 01:50:27;;;;;;;0.70;0.70;;;23.20;65.10;;;;;;5085975;27;21257;-19
2022/07/13 01:52:52;;;;;;;0.82;0.70;;;23.20;65.10;;;;;;5082542;27;20148;-18
2022/07/13 01:55:18;;;;;;;0.57;0.50;;;23.20;65.10;;;;;;5083749;27;20186;-19
2022/07/13 01:57:44;;;;;;;1.35;0.50;;;23.10;65.20;;;;;;5084805;27;20113;-20
2022/07/13 02:00:11;;;;;;;0.50;0.50;;;23.10;65.30;;;;;;5082288;27;20040;-20
2022/07/13 02:02:37;;;;;;;0.70;0.70;;;23.10;65.30;;;;;;5083015;27;20052;-19
2022/07/13 02:05:03;;;;;;;1.13;0.70;;;23.10;65.40;;;;;;5083273;27;20127;-20
2022/07/13 02:07:28;;;;;;;0.60;0.57;;;23.10;65.40;;;;;;5082178;27;20144;-27
2022/07/13 02:09:54;;;;;;;0.50;0.50;;;23.10;65.40;;;;;;5084497;27;20550;-19
2022/07/13 02:12:20;;;;;;;0.90;0.70;;;23.00;65.40;;;;;;5082745;27;20043;-20
2022/07/13 02:14:46;;;;;;;0.40;0.40;;;23.10;65.30;;;;;;5084356;28;20639;-20
2022/07/13 02:17:12;;;;;;;1.65;0.55;;;23.00;65.30;;;;;;5081593;27;20040;-19
2022/07/13 02:19:37;;;;;;;0.80;0.70;;;23.00;65.50;;;;;;5083049;27;20036;-20
2022/07/13 02:22:03;;;;;;;1.52;0.80;;;23.00;65.40;;;;;;5085380;27;20040;-20
2022/07/13 02:24:28;;;;;;;0.70;0.70;;;23.00;65.50;;;;;;5084172;27;20502;-20
2022/07/13 02:26:54;;;;;;;0.70;0.70;;;23.00;65.50;;;;;;5084620;27;20063;-19
2022/07/13 02:29:19;;;;;;;3.78;1.00;;;22.90;65.60;;;;;;5082341;27;20502;-19
2022/07/13 02:31:45;;;;;;;0.80;0.52;;;22.90;65.70;;;;;;5083444;28;20098;-20
2022/07/13 02:34:11;;;;;;;0.70;0.50;;;23.00;65.60;;;;;;5082987;28;20036;-20
2022/07/13 02:36:36;;;;;;;0.68;0.68;;;22.90;65.60;;;;;;5084038;27;20867;-20
2022/07/13 02:39:02;;;;;;;1.13;0.77;;;22.90;65.70;;;;;;5082385;27;20051;-20
2022/07/13 02:41:28;;;;;;;1.33;0.55;;;22.90;66.70;;;;;;5083007;27;20036;-20
2022/07/13 02:43:53;;;;;;;2.65;0.60;;;22.90;65.80;;;;;;5082953;27;20657;-26
2022/07/13 02:46:19;;;;;;;1.95;0.60;;;22.90;65.90;;;;;;5079566;28;20044;-19
2022/07/13 02:48:45;;;;;;;1.25;0.80;;;22.90;65.90;;;;;;5084150;27;20097;-20
2022/07/13 02:51:10;;;;;;;0.70;0.70;;;22.90;65.90;;;;;;5082859;27;20044;-19
2022/07/13 02:53:36;;;;;;;0.75;0.43;;;22.80;65.90;;;;;;5081776;28;20068;-20
2022/07/13 02:56:01;;;;;;;2.15;0.70;;;22.80;66.00;;;;;;5082957;27;20136;-19
2022/07/13 02:58:27;;;;;;;0.90;0.90;;;22.80;66.00;;;;;;5083861;27;20051;-20
2022/07/13 03:00:52;;;;;;;1.27;0.63;;;22.80;66.10;;;;;;5084523;27;20127;-21
2022/07/13 03:03:18;;;;;;;0.70;0.70;;;22.80;66.00;;;;;;5082953;27;20074;-20
2022/07/13 03:05:44;;;;;;;1.83;0.93;;;22.80;65.90;;;;;;5081990;28;20089;-20
2022/07/13 03:08:09;;;;;;;0.57;0.57;;;22.80;66.00;;;;;;5082855;27;20044;-19
2022/07/13 03:10:35;;;;;;;0.70;0.63;;;22.80;66.10;;;;;;5084782;27;20048;-20
2022/07/13 03:13:00;;;;;;;0.75;0.63;;;22.80;66.10;;;;;;5084502;27;20510;-19
2022/07/13 03:15:26;;;;;;;0.68;0.68;;;22.80;66.20;;;;;;5083575;27;20040;-19
2022/07/13 03:17:52;;;;;;;0.93;0.60;;;22.80;66.20;;;;;;5082883;27;20052;-19
2022/07/13 03:20:19;;;;;;;1.00;0.40;;;22.80;66.20;;;;;;5082267;27;20040;-19
2022/07/13 03:22:45;;;;;;;0.77;0.70;;;22.70;66.30;;;;;;5081381;27;20047;-20
2022/07/13 03:25:11;;;;;;;0.80;0.80;;;22.70;66.30;;;;;;5084134;27;20047;-19
2022/07/13 03:27:36;;;;;;;0.95;0.70;;;22.70;66.40;;;;;;5082445;27;20048;-19
2022/07/13 03:30:02;;;;;;;0.80;0.60;;;22.70;67.10;;;;;;5083555;27;20344;-19
2022/07/13 03:32:28;;;;;;;1.10;0.90;;;22.70;66.10;;;;;;5079747;27;20036;-19
2022/07/13 03:34:53;;;;;;;1.35;0.90;;;22.70;66.00;;;;;;5081767;27;20040;-19
2022/07/13 03:37:19;;;;;;;0.63;0.60;;;22.60;66.30;;;;;;5081575;27;20051;-19
2022/07/13 03:39:44;;;;;;;0.65;0.65;;;22.60;66.30;;;;;;5083452;27;20067;-19
2022/07/13 03:42:10;;;;;;;0.63;0.47;;;22.60;66.50;;;;;;5084305;27;20039;-19
2022/07/13 03:44:36;;;;;;;1.23;0.80;;;22.60;66.20;;;;;;5083302;27;20516;-19
2022/07/13 03:47:01;;;;;;;1.65;0.63;;;22.60;66.20;;;;;;5083068;27;20044;-19
2022/07/13 03:49:27;;;;;;;1.85;0.80;;;22.60;66.30;;;;;;5082011;27;20110;-20
2022/07/13 03:51:52;;;;;;;1.08;0.77;;;22.50;66.50;;;;;;5083614;27;20061;-19
2022/07/13 03:54:18;;;;;;;0.95;0.70;;;22.60;66.30;;;;;;5084196;27;20051;-19
2022/07/13 03:56:43;;;;;;;0.70;0.70;;;22.60;66.30;;;;;;5083780;27;20506;-20
2022/07/13 03:59:09;;;;;;;0.90;0.75;;;22.80;65.70;;;;;;5083545;27;20044;-20
2022/07/13 04:01:35;;;;;;;0.85;0.80;;;22.70;65.70;;;;;;5083987;27;20135;-19
2022/07/13 04:04:00;;;;;;;1.10;1.05;;;22.60;66.20;;;;;;5087131;28;20047;-24
2022/07/13 04:06:26;;;;;;;0.80;0.70;;;22.50;66.60;;;;;;5084108;27;20040;-20
2022/07/13 04:08:52;;;;;;;0.75;0.65;;;22.50;66.50;;;;;;5086381;27;20040;-19
2022/07/13 04:11:17;;;;;;;2.42;0.90;;;22.50;66.80;;;;;;5084617;27;20074;-19
2022/07/13 04:13:43;;;;;;;1.50;0.85;;;22.40;67.30;;;;;;5085234;27;20044;-19
2022/07/13 04:16:09;;;;;;;1.77;1.02;;;22.30;67.40;;;;;;5085106;28;20410;-20
2022/07/13 04:18:34;;;;;;;1.45;0.80;;;22.40;67.10;;;;;;5084253;27;20140;-23
2022/07/13 04:21:00;;;;;;;1.35;1.05;;;22.40;66.80;;;;;;5084028;27;20561;-19
2022/07/13 04:23:27;;;;;;;0.60;0.60;;;22.40;67.10;;;;;;5082657;27;20126;-20
2022/07/13 04:25:54;;;;;;;1.60;1.13;;;22.50;66.70;;;;;;5084667;27;20052;-19
2022/07/13 04:28:19;;;;;;;0.93;0.90;;;22.50;66.60;;;;;;5084401;27;20078;-19
2022/07/13 04:30:45;;;;;;;1.00;0.70;;;22.50;66.60;;;;;;4726836;27;10000631;-19
2022/07/13 04:33:11;;;;;;;0.73;0.60;;;22.50;66.70;;;;;;5084718;27;20048;-19
2022/07/13 04:35:36;;;;;;;0.95;0.68;;;22.40;66.80;;;;;;5081944;27;20032;-19
2022/07/13 04:38:02;;;;;;;1.00;1.00;;;22.40;66.80;;;;;;5081576;28;20430;-20
2022/07/13 04:40:28;;;;;;;1.13;0.60;;;22.30;67.40;;;;;;5081787;27;20047;-19
2022/07/13 04:42:53;;;;;;;0.70;0.70;;;22.30;67.40;;;;;;5081806;27;20048;-20
2022/07/13 04:45:19;;;;;;;1.10;0.98;;;22.40;67.60;;;;;;5081185;27;20062;-19
2022/07/13 04:47:45;;;;;;;0.95;0.95;;;22.30;67.70;;;;;;5078741;27;20046;-22
2022/07/13 04:50:11;;;;;;;0.93;0.93;;;22.20;67.90;;;;;;5080068;27;20044;-19
2022/07/13 04:52:36;;;;;;;1.33;0.73;;;22.10;68.50;;;;;;5079926;27;20032;-20
2022/07/13 04:55:02;;;;;;;1.17;0.80;;;22.10;68.50;;;;;;5082441;27;20453;-19
2022/07/13 04:57:29;;;;;;;0.60;0.60;;;22.10;68.50;;;;;;5081115;27;20059;-19
2022/07/13 04:59:55;;;;;;;0.82;0.82;;;22.10;68.60;;;;;;5081287;27;20040;-20
2022/07/13 05:02:20;;;;;;;0.93;0.85;;;22.00;69.00;;;;;;5079466;27;20050;-20
2022/07/13 05:04:46;;;;;;;0.60;0.60;;;22.00;69.20;;;;;;5079242;27;20044;-19
2022/07/13 05:07:11;;;;;;;0.60;0.60;;;21.90;69.40;;;;;;5082728;27;20036;-19
2022/07/13 05:09:37;;;;;;;0.73;0.73;;;21.90;69.40;;;;;;5084329;27;20044;-21
2022/07/13 05:12:03;;;;;;;2.03;0.68;;;21.90;69.60;;;;;;5080080;28;20044;-19
2022/07/13 05:14:29;;;;;;;0.77;0.73;;;21.90;69.80;;;;;;5078827;27;20044;-20
2022/07/13 05:16:54;;;;;;;1.10;0.80;;;21.80;69.90;;;;;;5081773;27;20750;-19
2022/07/13 05:19:20;;;;;;;0.90;0.90;;;21.90;69.90;;;;;;5079139;28;20543;-19
2022/07/13 05:21:45;;;;;;;1.00;0.68;;;21.90;70.00;;;;;;5082343;27;20051;-19
2022/07/13 05:24:11;;;;;;;0.70;0.70;;;21.80;70.20;;;;;;5083017;27;20048;-19
2022/07/13 05:26:36;;;;;;;0.80;0.80;;;21.90;70.20;;;;;;5079807;27;20506;-20
2022/07/13 05:29:04;;;;;;;1.95;1.08;;;21.80;70.30;;;;;;5080984;27;20131;-19
2022/07/13 05:31:30;;;;;;;1.08;1.00;;;21.80;70.50;;;;;;5077985;28;20678;-20
2022/07/13 05:33:56;;;;;;;0.82;0.82;;;21.80;70.40;;;;;;5074874;28;20675;-19
2022/07/13 05:36:22;;;;;;;0.70;0.68;;;21.80;70.40;;;;;;5079498;28;20043;-19
2022/07/13 05:38:48;;;;;;;0.70;0.70;;;21.80;70.40;;;;;;5077484;27;20136;-19
2022/07/13 05:41:14;;;;;;;2.75;0.90;;;21.80;70.60;;;;;;5077254;27;20027;-19
2022/07/13 05:43:40;;;;;;;0.90;0.90;;;21.80;70.80;;;;;;5074901;27;20448;-20
2022/07/13 05:46:06;;;;;;;3.00;0.90;;;21.60;71.10;;;;;;5079551;27;20465;-19
2022/07/13 05:48:32;;;;;;;0.90;0.90;;;21.60;71.30;;;;;;5080582;28;20059;-19
2022/07/13 05:50:58;;;;;;;0.82;0.75;;;21.70;71.10;;;;;;5079577;27;20525;-20
2022/07/13 05:53:23;;;;;;;1.20;0.80;;;21.80;71.10;;;;;;5077875;27;20055;-19
2022/07/13 05:55:49;;;;;;;1.42;0.70;;;21.80;70.90;;;;;;5078647;27;20044;-19
2022/07/13 05:58:14;;;;;;;0.80;0.80;;;21.90;70.90;;;;;;5078738;28;20520;-19
2022/07/13 06:00:40;;;;;;;1.77;0.65;;;21.80;71.10;;;;;;5078871;27;21589;-19
2022/07/13 06:03:05;;;;;;;1.30;1.20;;;21.80;71.30;;;;;;5076336;27;20074;-20
2022/07/13 06:05:31;;;;;;;1.48;0.73;;;21.80;71.60;;;;;;5077274;27;20075;-21
2022/07/13 06:07:57;;;;;;;1.02;0.80;;;21.80;72.10;;;;;;5082342;27;20059;-19
2022/07/13 06:10:22;;;;;;;0.80;0.80;;;21.80;71.60;;;;;;5080044;27;20810;-20
2022/07/13 06:12:48;;;;;;;2.65;0.90;;;21.80;71.40;;;;;;5088100;27;20326;-19
2022/07/13 06:15:13;;;;;;;1.15;0.98;;;21.90;71.50;;;;;;5080641;28;20044;-19
2022/07/13 06:17:39;;;;;;;0.80;0.80;;;22.00;70.80;;;;;;5081569;27;20111;-20
2022/07/13 06:20:05;;;;;;;0.77;0.77;;;22.10;70.50;;;;;;5082269;28;20032;-20
2022/07/13 06:22:31;;;;;;;0.68;0.65;;;22.10;70.40;;;;;;5077398;27;20517;-20
2022/07/13 06:24:57;;;;;;;0.70;0.70;;;22.10;70.10;;;;;;5083707;27;20048;-21
2022/07/13 06:27:22;;;;;;;0.70;0.70;;;22.20;69.90;;;;;;5084622;27;20513;-19
2022/07/13 06:29:48;;;;;;;1.85;0.80;;;22.20;69.70;;;;;;5082533;27;20141;-19
2022/07/13 06:32:14;;;;;;;0.80;0.60;;;22.30;69.60;;;;;;5083129;27;20413;-26
2022/07/13 06:34:39;;;;;;;0.60;0.60;;;22.30;69.40;;;;;;5083794;27;20052;-20
2022/07/13 06:37:06;;;;;;;0.70;0.70;;;22.30;69.30;;;;;;5085845;28;20041;-20
2022/07/13 06:39:32;;;;;;;0.90;0.90;;;22.30;69.20;;;;;;5085235;27;20048;-20
2022/07/13 06:41:58;;;;;;;1.08;0.65;;;22.30;69.00;;;;;;5083242;28;20048;-19
2022/07/13 06:44:24;;;;;;;1.75;0.80;;;22.30;69.00;;;;;;5083605;28;20052;-18
2022/07/13 06:46:49;;;;;;;0.70;0.70;;;22.40;68.90;;;;;;5083648;27;20040;-22
2022/07/13 06:49:15;;;;;;;0.70;0.70;;;22.40;68.80;;;;;;5083189;27;20056;-24
2022/07/13 06:51:41;;;;;;;0.98;0.60;;;22.40;69.50;;;;;;5084692;27;20032;-20
2022/07/13 06:54:06;;;;;;;0.75;0.60;;;22.40;68.60;;;;;;5084075;28;20036;-20
2022/07/13 06:56:32;;;;;;;0.60;0.60;;;22.40;68.50;;;;;;5083342;27;20044;-19
2022/07/13 06:58:57;;;;;;;0.70;0.70;;;22.40;68.50;;;;;;5083889;28;20123;-19
2022/07/13 07:01:23;;;;;;;0.63;0.60;;;22.40;68.40;;;;;;5083146;27;20055;-19
2022/07/13 07:03:49;;;;;;;0.60;0.50;;;22.40;68.30;;;;;;5085620;27;20050;-19
2022/07/13 07:06:14;;;;;;;0.85;0.85;;;22.40;68.20;;;;;;5085008;27;20111;-20
2022/07/13 07:08:40;;;;;;;0.65;0.60;;;22.50;68.20;;;;;;5083931;27;20036;-19
2022/07/13 07:11:06;;;;;;;0.63;0.63;;;22.50;68.20;;;;;;5084390;27;20425;-19
2022/07/13 07:13:31;;;;;;;0.68;0.65;;;22.50;68.20;;;;;;5082586;27;20479;-19
2022/07/13 07:15:59;;;;;;;0.65;0.60;;;22.50;68.20;;;;;;5087071;27;20562;-19
2022/07/13 07:18:24;;;;;;;0.47;0.47;;;22.50;68.20;;;;;;5083334;28;20028;-19
2022/07/13 07:20:50;;;;;;;0.40;0.40;;;22.50;68.20;;;;;;5082800;27;20055;-19
2022/07/13 07:23:16;;;;;;;0.95;0.55;;;22.50;68.20;;;;;;5085129;28;20039;-19
2022/07/13 07:25:41;;;;;;;0.60;0.60;;;22.50;68.10;;;;;;5083856;27;20028;-20
2022/07/13 07:28:07;;;;;;;0.60;0.60;;;22.60;68.00;;;;;;5084059;28;20509;-19
2022/07/13 07:30:33;;;;;;;0.70;0.55;;;22.60;67.90;;;;;;5088438;28;20061;-20
2022/07/13 07:32:58;;;;;;;0.40;0.40;;;22.60;67.80;;;;;;5086800;27;20509;-19
2022/07/13 07:35:24;;;;;;;0.70;0.57;;;22.60;67.80;;;;;;5089099;27;20130;-19
2022/07/13 07:37:50;;;;;;;0.50;0.50;;;22.60;67.60;;;;;;5086104;27;20041;-19
2022/07/13 07:40:15;;;;;;;1.20;0.60;;;22.60;67.60;;;;;;5085461;28;20052;-20
2022/07/13 07:42:41;;;;;;;0.55;0.50;;;22.60;67.50;;;;;;5089059;28;20082;-19
2022/07/13 07:45:08;;;;;;;0.40;0.40;;;22.60;67.50;;;;;;5088709;27;20095;-20
2022/07/13 07:47:33;;;;;;;0.50;0.50;;;22.60;67.50;;;;;;5085556;27;20429;-19
2022/07/13 07:49:59;;;;;;;0.55;0.55;;;22.60;67.50;;;;;;5087210;28;20051;-19
2022/07/13 07:52:24;;;;;;;1.55;0.60;;;22.60;67.40;;;;;;5086101;27;20066;-19
2022/07/13 07:54:50;;;;;;;0.60;0.60;;;22.60;67.30;;;;;;5088241;27;20036;-20
2022/07/13 07:57:16;;;;;;;0.52;0.52;;;22.70;67.60;;;;;;5086947;27;20435;-19
2022/07/13 07:59:41;;;;;;;0.60;0.60;;;22.70;67.30;;;;;;5087955;27;20044;-19
2022/07/13 08:02:10;;;;;;;0.40;0.40;;;22.70;67.30;;;;;;5086983;27;20532;-19
2022/07/13 08:04:36;;;;;;;0.93;0.50;;;22.60;67.20;;;;;;5088022;27;20076;-19
2022/07/13 08:07:01;;;;;;;0.40;0.40;;;22.70;67.30;;;;;;5087400;27;20475;-20
2022/07/13 08:09:27;;;;;;;0.40;0.40;;;22.70;67.30;;;;;;5086295;27;20518;-19
2022/07/13 08:11:53;;;;;;;0.50;0.50;;;22.70;67.30;;;;;;5086854;28;20065;-20
2022/07/13 08:14:18;;;;;;;0.50;0.50;;;22.70;67.20;;;;;;5085344;27;20040;-20
2022/07/13 08:16:44;;;;;;;0.50;0.50;;;22.70;67.20;;;;;;5086671;27;20040;-19
2022/07/13 08:19:10;;;;;;;0.43;0.43;;;22.70;67.10;;;;;;5086173;27;20123;-19
2022/07/13 08:21:36;;;;;;;0.50;0.50;;;22.70;67.10;;;;;;5088162;27;20127;-20
2022/07/13 08:24:02;;;;;;;0.50;0.50;;;22.80;67.10;;;;;;5087073;27;20538;-20
2022/07/13 08:26:28;;;;;;;0.50;0.50;;;22.70;67.10;;;;;;5085834;27;20078;-20
2022/07/13 08:28:55;;;;;;;0.60;0.47;;;22.80;67.10;;;;;;5087222;27;20501;-19
2022/07/13 08:31:21;;;;;;;0.70;0.40;;;22.80;67.10;;;;;;5085704;27;20113;-19
2022/07/13 08:39:15;;;;;;;;;;;22.80;67.00;;;;;;5086105;27;20070;-20
2022/07/13 08:41:41;;;;;;;0.38;0.38;;;22.80;66.90;;;;;;5085608;28;20398;-19
2022/07/13 08:44:06;;;;;;;0.60;0.60;;;22.80;66.60;;;;;;5086361;27;20418;-19
2022/07/13 08:46:32;;;;;;;0.40;0.40;;;22.80;66.90;;;;;;5086192;27;20036;-19
2022/07/13 08:48:58;;;;;;;0.30;0.30;;;22.80;66.80;;;;;;5086482;27;20139;-19
2022/07/13 08:51:24;;;;;;;0.60;0.60;;;22.90;66.90;;;;;;5086093;28;20055;-19
2022/07/13 08:53:51;;;;;;;0.75;0.75;;;22.90;66.80;;;;;;5084353;27;20040;-19
2022/07/13 08:56:17;;;;;;;0.50;0.50;;;22.90;66.80;;;;;;5086199;27;20036;-20
2022/07/13 08:58:42;;;;;;;0.50;0.50;;;22.90;66.50;;;;;;5084253;27;20414;-19
2022/07/13 09:01:09;;;;;;;0.55;0.55;;;22.90;66.80;;;;;;5085915;28;20043;-21
2022/07/13 09:03:35;;;;;;;0.57;0.57;;;22.90;66.80;;;;;;5087657;27;20102;-19
2022/07/13 09:06:00;;;;;;;0.60;0.60;;;22.90;66.70;;;;;;5085689;27;20047;-19
2022/07/13 09:08:26;;;;;;;0.40;0.40;;;22.90;66.60;;;;;;5084668;28;20048;-19
2022/07/13 09:11:00;;;;;;;0.68;0.50;;;22.90;66.80;;;;;;5085757;27;20055;-19
2022/07/13 09:13:39;;;;;;;0.47;0.47;;;22.90;66.70;;;;;;5085040;27;20082;-19
2022/07/13 09:16:38;;;;;;;0.43;0.43;;;22.90;66.60;;;;;;5084610;27;20043;-20
2022/07/13 09:19:03;;;;;;;0.77;0.77;;;22.90;66.60;;;;;;5082957;27;20056;-19
2022/07/13 09:21:32;;;;;;;0.43;0.43;;;22.90;66.50;;;;;;5088224;27;20173;-20
2022/07/13 09:23:59;;;;;;;0.55;0.35;;;23.00;66.60;;;;;;5083477;27;20777;-19
2022/07/13 09:26:44;;;;;;;0.40;0.40;;;23.00;66.50;;;;;;5086001;27;20039;-22
2022/07/13 09:29:13;;;;;;;0.50;0.50;;;23.00;66.40;;;;;;5084167;27;20040;-19
2022/07/13 09:31:55;;;;;;;0.52;0.52;;;23.00;66.50;;;;;;5082449;27;20513;-19
2022/07/13 09:34:41;;;;;;;0.40;0.40;;;23.00;66.30;;;;;;5085231;27;20067;-19
2022/07/13 09:37:10;;;;;;;0.40;0.40;;;23.00;66.40;;;;;;5080196;27;20051;-19
2022/07/13 09:39:58;;;;;;;0.65;0.60;;;23.00;66.40;;;;;;5085809;27;20570;-19
2022/07/13 09:42:27;;;;;;;0.70;0.40;;;23.00;66.40;;;;;;5084529;28;20074;-20
2022/07/13 09:47:54;;;;;;;0.30;0.30;;;23.10;66.30;;;;;;5082344;27;20040;-19
2022/07/13 09:50:43;;;;;;;0.40;0.40;;;23.00;66.30;;;;;;5083373;27;20127;-19
2022/07/13 09:53:41;;;;;;;0.30;0.30;;;23.10;66.20;;;;;;5085081;27;20098;-19
2022/07/13 09:56:07;;;;;;;1.00;0.40;;;23.10;66.20;;;;;;5064358;28;20043;-20
2022/07/13 09:58:34;;;;;;;0.65;0.40;;;23.10;66.20;;;;;;5085334;27;20036;-20
2022/07/13 10:01:02;;;;;;;0.40;0.40;;;23.10;66.20;;;;;;5084550;27;20048;-19
2022/07/13 10:03:30;;;;;;;0.38;0.38;;;23.10;66.20;;;;;;5086522;27;20047;-20
2022/07/13 10:05:57;;;;;;;0.32;0.32;;;23.10;66.00;;;;;;5083214;28;20560;-19
2022/07/13 10:08:22;;;;;;;1.65;0.50;;;23.10;66.10;;;;;;5084609;27;20039;-20
2022/07/13 10:10:49;;;;;;;0.50;0.40;;;23.10;66.10;;;;;;5082045;27;20049;-19
2022/07/13 10:13:14;;;;;;;0.30;0.30;;;23.10;66.00;;;;;;5084756;27;20544;-19
2022/07/13 10:15:40;;;;;;;0.30;0.30;;;23.10;66.00;;;;;;5084041;27;20044;-19
2022/07/13 10:18:07;;;;;;;0.50;0.50;;;23.20;66.10;;;;;;5084264;27;20096;-20
2022/07/13 10:20:33;;;;;;;0.25;0.25;;;23.20;66.00;;;;;;5083106;28;20043;-19
2022/07/13 10:22:59;;;;;;;0.40;0.40;;;23.20;66.00;;;;;;5081583;27;20044;-20
2022/07/13 10:25:24;;;;;;;0.30;0.30;;;23.10;65.90;;;;;;5082876;27;20083;-19
2022/07/13 10:28:05;;;;;;;0.30;0.30;;;23.20;65.90;;;;;;5080939;28;20093;-19
2022/07/13 10:30:31;;;;;;;0.40;0.40;;;23.20;65.90;;;;;;5096098;28;20044;-19
2022/07/13 10:33:19;;;;;;;0.30;0.30;;;23.20;65.30;;;;;;5082840;27;20062;-20
2022/07/13 10:35:52;;;;;;;0.38;0.38;;;23.20;65.80;;;;;;5080214;28;20051;-20
2022/07/13 10:38:27;;;;;;;0.40;0.30;;;23.20;65.80;;;;;;5079265;27;20044;-20
2022/07/13 10:41:21;;;;;;;0.30;0.30;;;23.20;65.80;;;;;;5083495;28;20039;-19
2022/07/13 10:44:31;;;;;;;0.40;0.40;;;23.20;65.70;;;;;;5081196;27;20127;-19
2022/07/13 10:46:57;;;;;;;0.30;0.30;;;23.30;65.80;;;;;;5077922;27;20044;-19
2022/07/13 10:49:32;;;;;;;0.40;0.40;;;23.30;65.70;;;;;;5081939;28;20145;-20
2022/07/13 10:52:25;;;;;;;0.35;0.32;;;23.30;65.60;;;;;;5081777;28;20491;-20
2022/07/13 10:55:03;;;;;;;0.50;0.50;;;23.30;66.40;;;;;;5085078;27;20044;-19
2022/07/13 10:57:32;;;;;;;0.30;0.30;;;23.30;65.20;;;;;;5082976;28;20044;-20
2022/07/13 11:00:22;;;;;;;2.15;0.60;;;23.30;65.60;;;;;;5082167;27;20044;-19
2022/07/13 11:03:06;;;;;;;0.40;0.40;;;23.30;65.60;;;;;;5082323;27;20040;-19
2022/07/13 11:05:35;;;;;;;0.30;0.30;;;23.30;65.60;;;;;;5084019;28;20036;-19
2022/07/13 11:08:14;;;;;;;0.30;0.30;;;23.30;65.60;;;;;;5086578;28;20409;-19
2022/07/13 11:10:40;;;;;;;0.40;0.40;;;23.30;65.60;;;;;;5086879;27;21085;-19
2022/07/13 11:13:09;;;;;;;0.30;0.30;;;23.30;65.50;;;;;;5090221;27;20410;-20
2022/07/13 11:15:52;;;;;;;0.65;0.40;;;23.30;65.50;;;;;;5087990;27;20050;-20
2022/07/13 11:18:32;;;;;;;0.30;0.30;;;23.30;65.50;;;;;;5086797;27;20426;-20
2022/07/13 11:21:04;;;;;;;0.40;0.40;;;23.30;65.50;;;;;;5085378;27;20406;-21
2022/07/13 11:26:36;;;;;;;0.30;0.30;;;23.40;65.50;;;;;;5086435;27;20051;-20
2022/07/13 11:29:23;;;;;;;0.40;0.30;;;23.40;65.40;;;;;;5085597;27;20048;-19
2022/07/13 11:31:59;;;;;;;0.30;0.30;;;23.40;65.50;;;;;;5084709;27;20537;-20
2022/07/13 11:34:25;;;;;;;0.30;0.30;;;23.40;65.40;;;;;;5087582;27;20101;-19
2022/07/13 11:36:52;;;;;;;0.30;0.30;;;23.40;65.40;;;;;;5085273;27;20048;-22
2022/07/13 11:39:24;;;;;;;1.65;0.60;;;23.40;65.70;;;;;;5083002;28;20151;-20
2022/07/13 11:41:53;;;;;;;0.63;0.63;;;23.40;66.50;;;;;;5084141;27;20509;-20
2022/07/13 11:44:26;;;;;;;0.40;0.40;;;23.50;65.70;;;;;;5084224;28;21837;-20
2022/07/13 11:46:54;;;;;;;1.13;0.43;;;23.50;65.70;;;;;;5087174;27;20426;-19
2022/07/13 11:49:19;;;;;;;1.08;0.50;;;23.50;65.60;;;;;;5086988;27;20048;-20
2022/07/13 11:51:45;;;;;;;0.88;0.40;;;23.50;65.60;;;;;;5086419;27;20051;-20
2022/07/13 11:54:18;;;;;;;0.20;0.20;;;23.50;65.60;;;;;;5085838;27;20647;-19
2022/07/13 11:56:48;;;;;;;0.65;0.50;;;23.50;65.80;;;;;;5086639;28;20036;-19
2022/07/13 11:59:14;;;;;;;0.77;0.50;;;23.60;65.90;;;;;;5082020;27;20090;-28
2022/07/13 12:01:51;;;;;;;0.60;0.60;;;23.50;66.60;;;;;;5086885;28;20040;-20
2022/07/13 12:04:23;;;;;;;0.68;0.68;;;23.50;66.10;;;;;;5085101;27;20045;-19
2022/07/13 12:06:48;;;;;;;0.55;0.50;;;23.50;66.20;;;;;;5087793;27;20043;-19
2022/07/13 12:09:18;;;;;;;0.68;0.40;;;23.60;66.00;;;;;;5084791;28;20032;-19
2022/07/13 12:11:44;;;;;;;1.15;0.50;;;23.60;66.30;;;;;;5085545;28;20101;-19
2022/07/13 12:14:11;;;;;;;0.60;0.60;;;23.60;66.10;;;;;;5084976;27;20044;-19
2022/07/13 12:16:37;;;;;;;0.40;0.40;;;23.60;66.20;;;;;;5085796;28;20147;-19
2022/07/13 12:19:04;;;;;;;0.70;0.50;;;23.60;66.20;;;;;;5068874;27;20561;-20
2022/07/13 12:21:32;;;;;;;0.73;0.60;;;23.60;66.00;;;;;;5087525;27;20127;-20
2022/07/13 12:23:58;;;;;;;0.70;0.40;;;23.60;66.00;;;;;;5085271;27;20087;-20
2022/07/13 12:26:25;;;;;;;0.30;0.30;;;23.60;66.00;;;;;;5086056;27;20503;-20
2022/07/13 12:28:51;;;;;;;0.60;0.60;;;23.60;66.00;;;;;;5085241;27;20464;-19
2022/07/13 12:31:22;;;;;;;0.60;0.43;;;23.60;65.80;;;;;;5087105;27;20053;-20
2022/07/13 12:33:50;;;;;;;0.93;0.50;;;23.60;65.90;;;;;;5087560;27;20032;-19
2022/07/13 12:36:19;;;;;;;0.40;0.40;;;23.60;65.80;;;;;;5086156;27;20047;-19
2022/07/13 12:38:55;;;;;;;0.40;0.40;;;23.60;65.80;;;;;;5084608;27;20067;-19
2022/07/13 12:41:42;;;;;;;0.60;0.40;;;23.60;65.80;;;;;;5083767;27;20040;-19
2022/07/13 12:44:08;;;;;;;1.23;0.50;;;23.70;65.90;;;;;;5084341;27;20032;-20
2022/07/13 12:46:50;;;;;;;0.50;0.50;;;23.70;65.70;;;;;;5087273;27;20063;-20
2022/07/13 12:49:15;;;;;;;0.30;0.30;;;23.70;65.50;;;;;;5085419;27;20040;-20
2022/07/13 12:51:49;;;;;;;0.40;0.40;;;23.70;65.50;;;;;;5086381;28;20050;-20
2022/07/13 12:54:15;;;;;;;0.38;0.38;;;23.70;65.50;;;;;;5085712;27;20051;-20
2022/07/13 12:56:51;;;;;;;0.30;0.30;;;23.70;65.30;;;;;;5086203;28;20036;-20
2022/07/13 12:59:18;;;;;;;0.35;0.32;;;23.70;65.30;;;;;;5084009;27;20071;-19
2022/07/13 13:01:47;;;;;;;0.40;0.40;;;23.80;65.40;;;;;;5084808;27;20024;-19